Time;durP1;ratioP1;P1;durP2;ratioP2;P2;SDS_P1;SDS_P2;PMS_P1;PMS_P2;Temp;Humidity;BMP_temperature;BMP_pressure;BME280_temperature;BME280_humidity;BME280_pressure;Samples;Min_cycle;Max_cycle;Signal;HPM_P1;HPM_P2
2022/08/21 00:02:21;;;;;;;16.60;6.60;;;;;;;22.09;82.49;98721.03;5030873;28;20064;-71
2022/08/21 00:04:47;;;;;;;13.02;5.93;;;;;;;22.08;82.04;98727.94;5032583;28;20025;-70
2022/08/21 00:07:13;;;;;;;16.45;6.85;;;;;;;22.15;81.86;98725.81;5038003;28;20034;-70
2022/08/21 00:09:39;;;;;;;14.70;6.80;;;;;;;22.21;81.37;98725.28;5012796;28;20026;-70
2022/08/21 00:12:06;;;;;;;14.93;6.68;;;;;;;22.22;81.36;98736.25;5030041;28;20112;-69
2022/08/21 00:14:32;;;;;;;16.02;7.97;;;;;;;22.07;81.56;98741.38;5031063;28;20502;-70
2022/08/21 00:16:58;;;;;;;15.23;8.02;;;;;;;21.70;84.07;98746.03;5030647;28;20091;-70
2022/08/21 00:19:24;;;;;;;18.38;9.38;;;;;;;21.51;84.30;98744.63;5030229;28;20453;-70
2022/08/21 00:21:51;;;;;;;20.20;9.23;;;;;;;21.51;84.57;98738.94;5032169;28;20452;-70
2022/08/21 00:24:18;;;;;;;19.95;9.55;;;;;;;21.37;85.33;98732.22;5032474;28;20092;-70
2022/08/21 00:26:44;;;;;;;16.00;9.45;;;;;;;21.27;84.99;98721.81;5045295;28;20028;-70
2022/08/21 00:29:09;;;;;;;18.92;8.52;;;;;;;21.52;84.31;98714.97;5032102;28;20487;-70
2022/08/21 00:31:35;;;;;;;14.05;7.57;;;;;;;21.50;85.29;98717.44;5033032;28;20099;-70
2022/08/21 00:34:01;;;;;;;14.60;7.65;;;;;;;21.65;84.70;98726.53;5030861;28;20119;-70
2022/08/21 00:36:28;;;;;;;13.77;6.90;;;;;;;21.73;83.41;98711.84;5032196;28;20026;-69
2022/08/21 00:38:53;;;;;;;14.88;7.72;;;;;;;21.88;82.10;98708.75;5012982;28;20092;-69
2022/08/21 00:41:19;;;;;;;15.13;7.88;;;;;;;21.92;81.04;98714.41;5011325;28;20025;-69
2022/08/21 00:43:44;;;;;;;11.65;7.38;;;;;;;21.98;81.00;98712.66;5040256;28;20035;-69
2022/08/21 00:46:10;;;;;;;11.13;7.40;;;;;;;21.93;82.14;98704.63;5050372;28;20025;-70
2022/08/21 00:48:36;;;;;;;17.17;7.38;;;;;;;21.92;82.56;98695.25;5033493;28;20029;-70
2022/08/21 00:51:06;;;;;;;14.60;8.45;;;;;;;21.93;82.35;98696.88;5031912;28;20045;-69
2022/08/21 00:53:32;;;;;;;;;;;;;;;21.96;82.11;98696.03;5032465;28;20033;-70
2022/08/21 00:55:59;;;;;;;15.18;8.75;;;;;;;22.10;81.49;98699.88;5031677;28;19909;-70
2022/08/21 00:58:27;;;;;;;12.65;7.70;;;;;;;22.22;80.73;98701.28;5042120;28;20407;-70
2022/08/21 01:00:52;;;;;;;12.57;8.63;;;;;;;22.16;80.91;98701.78;5050650;28;20043;-69
2022/08/21 01:03:23;;;;;;;16.42;9.43;;;;;;;22.24;80.91;98702.47;5051482;28;20032;-70
2022/08/21 01:05:48;;;;;;;13.60;9.23;;;;;;;22.09;82.65;98703.94;5049870;28;20091;-69
2022/08/21 01:08:16;;;;;;;17.65;10.20;;;;;;;21.39;85.31;98698.47;5032041;28;20113;-69
2022/08/21 01:10:43;;;;;;;20.20;11.02;;;;;;;21.03;87.01;98704.63;5030877;28;20079;-69
2022/08/21 01:13:11;;;;;;;14.20;9.77;;;;;;;21.37;86.63;98702.97;5031024;28;20044;-69
2022/08/21 01:15:42;;;;;;;18.00;10.38;;;;;;;21.69;85.32;98707.44;5038288;28;20029;-69
2022/08/21 01:18:09;;;;;;;15.38;10.50;;;;;;;21.57;86.21;98698.22;5029860;28;20033;-69
2022/08/21 01:20:36;;;;;;;21.08;9.68;;;;;;;21.39;87.06;98707.00;5031728;28;20026;-70
2022/08/21 01:23:03;;;;;;;19.15;10.70;;;;;;;21.52;86.85;98704.38;5031437;28;20465;-70
2022/08/21 01:25:29;;;;;;;14.38;8.88;;;;;;;21.55;86.50;98708.41;5043279;28;20547;-69
2022/08/21 01:27:56;;;;;;;20.45;9.48;;;;;;;21.33;88.42;98700.16;5036232;28;20120;-69
2022/08/21 01:30:25;;;;;;;20.77;9.05;;;;;;;21.36;88.41;98705.03;5030089;28;20394;-69
2022/08/21 01:32:51;;;;;;;13.80;8.05;;;;;;;21.50;87.11;98706.06;5031440;28;20029;-70
2022/08/21 01:35:18;;;;;;;13.13;7.50;;;;;;;21.37;86.45;98711.50;5043202;28;20037;-69
2022/08/21 01:37:44;;;;;;;13.65;7.60;;;;;;;21.28;87.27;98712.03;5037419;28;20028;-70
2022/08/21 01:40:11;;;;;;;18.70;9.13;;;;;;;21.04;88.93;98723.31;5031506;28;20389;-70
2022/08/21 01:42:37;;;;;;;18.70;10.23;;;;;;;20.97;89.83;98734.75;5030139;28;20026;-69
2022/08/21 01:45:04;;;;;;;23.90;10.52;;;;;;;20.75;91.10;98752.00;5030038;28;20455;-70
2022/08/21 01:47:30;;;;;;;21.85;8.85;;;;;;;20.65;90.92;98752.94;5030187;28;20399;-70
2022/08/21 01:49:55;;;;;;;18.38;8.68;;;;;;;20.55;92.48;98769.66;5031336;28;20059;-70
2022/08/21 01:52:21;;;;;;;12.07;8.73;;;;;;;20.35;91.81;98775.13;5030074;28;20039;-70
2022/08/21 01:54:47;;;;;;;17.58;8.63;;;;;;;19.97;93.13;98767.31;5039881;28;20499;-70
2022/08/21 01:57:14;;;;;;;15.07;8.95;;;;;;;19.85;94.24;98770.59;5042917;28;20068;-70
2022/08/21 01:59:39;;;;;;;16.70;8.10;;;;;;;19.89;94.79;98760.03;5033477;28;20033;-69
2022/08/21 02:02:06;;;;;;;17.60;8.65;;;;;;;19.81;94.46;98764.16;5033524;28;20411;-69
2022/08/21 02:04:32;;;;;;;16.13;9.05;;;;;;;19.75;94.94;98767.41;5040426;28;20408;-70
2022/08/21 02:06:59;;;;;;;17.15;8.52;;;;;;;19.64;95.84;98763.84;5046100;28;20424;-69
2022/08/21 02:09:24;;;;;;;15.10;9.35;;;;;;;19.54;95.83;98737.16;5013843;28;20030;-69
2022/08/21 02:11:51;;;;;;;14.02;8.95;;;;;;;19.70;96.40;98724.50;5014753;28;20100;-69
2022/08/21 02:14:17;;;;;;;21.73;11.40;;;;;;;20.05;94.49;98728.31;5021089;28;20169;-70
2022/08/21 02:16:44;;;;;;;15.52;8.73;;;;;;;20.13;93.74;98727.03;5051114;28;20055;-70
2022/08/21 02:19:12;;;;;;;13.63;9.15;;;;;;;20.18;93.18;98726.56;5033646;28;20413;-69
2022/08/21 02:21:38;;;;;;;15.35;9.13;;;;;;;20.01;94.48;98725.50;5034322;28;20473;-70
2022/08/21 02:24:04;;;;;;;18.92;8.65;;;;;;;19.92;95.80;98725.97;5035162;28;20124;-70
2022/08/21 02:26:30;;;;;;;13.98;10.13;;;;;;;19.97;96.59;98738.09;5053150;28;20031;-70
2022/08/21 02:28:55;;;;;;;17.88;9.95;;;;;;;20.02;96.45;98737.66;5033512;28;20412;-69
2022/08/21 02:31:21;;;;;;;17.10;11.48;;;;;;;19.89;97.64;98743.81;5033021;28;20059;-69
2022/08/21 02:33:47;;;;;;;21.20;10.40;;;;;;;19.91;97.74;98757.59;5033045;28;20033;-69
2022/08/21 02:36:12;;;;;;;23.25;11.68;;;;;;;19.81;99.38;98764.16;5051816;28;20420;-69
2022/08/21 02:38:40;;;;;;;18.88;11.82;;;;;;;19.72;99.46;98762.56;5019120;28;20049;-70
2022/08/21 02:41:09;;;;;;;22.83;11.25;;;;;;;19.72;100.00;98753.25;5014826;28;20097;-69
2022/08/21 02:43:35;;;;;;;19.33;10.55;;;;;;;19.70;100.00;98761.38;5029389;28;20099;-69
2022/08/21 02:46:03;;;;;;;21.20;10.85;;;;;;;19.88;99.98;98759.22;5051142;28;20484;-69
2022/08/21 02:48:31;;;;;;;16.92;10.70;;;;;;;19.86;99.07;98755.19;5022053;28;20490;-69
2022/08/21 02:51:04;;;;;;;20.92;10.73;;;;;;;20.08;98.75;98760.75;5020310;28;20075;-69
2022/08/21 02:53:30;;;;;;;22.25;11.57;;;;;;;20.39;95.65;98758.03;5036052;28;20033;-69
2022/08/21 02:55:58;;;;;;;14.85;9.25;;;;;;;20.53;93.13;98752.25;5023168;28;20048;-70
2022/08/21 02:58:27;;;;;;;13.40;9.07;;;;;;;20.75;91.89;98763.38;5027413;28;20067;-69
2022/08/21 03:00:53;;;;;;;19.97;11.23;;;;;;;20.56;92.16;98767.63;5013671;28;20018;-69
2022/08/21 03:03:20;;;;;;;21.27;9.43;;;;;;;20.39;92.22;98766.56;5018395;28;20403;-69
2022/08/21 03:05:47;;;;;;;16.23;8.75;;;;;;;20.68;92.05;98763.47;5033437;28;20044;-69
2022/08/21 03:08:14;;;;;;;11.30;9.43;;;;;;;20.92;90.51;98746.59;5032158;28;20025;-71
2022/08/21 03:10:43;;;;;;;15.13;8.90;;;;;;;21.07;89.62;98744.41;5032950;28;20021;-69
2022/08/21 03:13:09;;;;;;;15.20;9.25;;;;;;;21.09;88.42;98733.41;5033068;28;20033;-69
2022/08/21 03:15:36;;;;;;;13.07;8.07;;;;;;;21.09;88.50;98737.03;5031475;28;20052;-70
2022/08/21 03:18:03;;;;;;;15.10;9.68;;;;;;;21.20;87.29;98753.97;5029715;28;20025;-69
2022/08/21 03:20:32;;;;;;;16.35;10.98;;;;;;;20.82;90.13;98771.06;5017704;28;20396;-71
2022/08/21 03:22:58;;;;;;;15.45;10.38;;;;;;;20.47;94.03;98765.28;5013167;28;20026;-69
2022/08/21 03:25:26;;;;;;;13.18;9.02;;;;;;;20.06;94.98;98756.28;5031797;28;20148;-69
2022/08/21 03:27:52;;;;;;;14.50;9.88;;;;;;;20.11;95.39;98765.56;5021128;28;20036;-69
2022/08/21 03:30:20;;;;;;;12.43;8.63;;;;;;;20.35;94.78;98775.13;5032675;28;20021;-69
2022/08/21 03:32:47;;;;;;;20.50;10.07;;;;;;;20.33;95.14;98775.53;5028013;28;20099;-69
2022/08/21 03:35:13;;;;;;;14.13;9.32;;;;;;;20.06;95.83;98764.81;5019116;28;20080;-70
2022/08/21 03:37:39;;;;;;;17.17;10.43;;;;;;;20.18;95.84;98776.88;5030699;28;20026;-69
2022/08/21 03:40:07;;;;;;;20.63;10.63;;;;;;;20.22;94.72;98783.34;5031119;28;20095;-70
2022/08/21 03:42:33;;;;;;;18.02;9.55;;;;;;;20.42;94.28;98783.56;5032557;28;20029;-69
2022/08/21 03:44:59;;;;;;;18.45;10.63;;;;;;;20.50;93.29;98783.50;5042945;28;20025;-69
2022/08/21 03:47:25;;;;;;;15.20;9.45;;;;;;;20.67;92.78;98781.72;5045425;28;20025;-69
2022/08/21 03:49:50;;;;;;;17.48;8.38;;;;;;;20.83;89.63;98779.16;5022656;28;20113;-69
2022/08/21 03:52:17;;;;;;;14.55;9.38;;;;;;;21.08;88.26;98775.22;5013172;28;20026;-69
2022/08/21 03:54:43;;;;;;;13.43;9.18;;;;;;;21.15;87.52;98775.16;5029793;28;20029;-69
2022/08/21 03:57:09;;;;;;;16.73;9.35;;;;;;;21.16;87.62;98775.94;5028724;28;20033;-69
2022/08/21 03:59:35;;;;;;;19.35;11.75;;;;;;;21.12;87.47;98776.00;5012720;28;20471;-69
2022/08/21 04:02:05;;;;;;;20.55;9.93;;;;;;;21.07;87.54;98770.78;5018268;28;20104;-69
2022/08/21 04:04:31;;;;;;;17.10;7.88;;;;;;;21.13;86.74;98769.09;5031926;28;20112;-69
2022/08/21 04:06:57;;;;;;;18.25;9.68;;;;;;;21.24;86.26;98788.84;5030490;28;20036;-69
2022/08/21 04:09:24;;;;;;;17.75;8.77;;;;;;;21.25;86.55;98796.16;5012367;28;20104;-69
2022/08/21 04:11:50;;;;;;;17.30;8.80;;;;;;;21.19;86.82;98789.34;5021080;28;20060;-69
2022/08/21 04:14:16;;;;;;;19.83;9.35;;;;;;;21.32;86.13;98781.03;5033314;28;20028;-69
2022/08/21 04:16:43;;;;;;;18.42;8.75;;;;;;;21.27;87.02;98778.66;5051790;28;20027;-69
2022/08/21 04:19:10;;;;;;;18.35;9.70;;;;;;;21.20;87.14;98767.38;5015248;28;20028;-69
2022/08/21 04:21:37;;;;;;;18.85;8.63;;;;;;;21.20;87.00;98781.59;5012189;28;20068;-69
2022/08/21 04:24:02;;;;;;;20.60;8.90;;;;;;;21.27;86.87;98793.69;5014531;28;20120;-70
2022/08/21 04:26:28;;;;;;;16.77;9.93;;;;;;;21.15;88.75;98785.69;5052161;28;20031;-69
2022/08/21 04:28:55;;;;;;;17.38;9.68;;;;;;;21.12;88.18;98792.25;5033956;28;20546;-69
2022/08/21 04:31:21;;;;;;;18.90;8.95;;;;;;;21.24;85.83;98796.59;5031529;28;20033;-69
2022/08/21 04:33:46;;;;;;;16.63;8.63;;;;;;;21.30;84.54;98780.66;5031746;28;20029;-69
2022/08/21 04:36:12;;;;;;;13.88;8.88;;;;;;;21.24;85.67;98779.53;5031256;28;20025;-69
2022/08/21 04:38:37;;;;;;;12.63;8.60;;;;;;;21.23;85.58;98786.41;5014640;28;20026;-69
2022/08/21 04:41:05;;;;;;;19.80;9.82;;;;;;;21.31;85.65;98783.09;5011802;28;20074;-69
2022/08/21 04:43:30;;;;;;;14.93;8.57;;;;;;;21.40;84.36;98779.72;5014213;28;20018;-70
2022/08/21 04:45:56;;;;;;;19.05;10.00;;;;;;;21.49;84.04;98769.88;5043237;28;20033;-69
2022/08/21 04:48:23;;;;;;;14.38;10.18;;;;;;;21.45;84.45;98779.22;5026402;28;20029;-69
2022/08/21 04:51:13;;;;;;;20.38;10.23;;;;;;;21.48;84.00;98782.44;5026821;28;20054;-69
2022/08/21 04:53:57;;;;;;;12.83;9.27;;;;;;;21.43;84.18;98784.56;5018421;28;20025;-69
2022/08/21 04:56:28;;;;;;;13.00;7.45;;;;;;;21.22;82.60;98784.81;5024178;28;20441;-69
2022/08/21 04:58:56;;;;;;;13.30;7.47;;;;;;;21.11;83.58;98774.38;5025065;28;20024;-69
2022/08/21 05:01:25;;;;;;;10.75;6.57;;;;;;;21.09;83.67;98768.31;5028168;28;20024;-69
2022/08/21 05:04:00;;;;;;;20.90;8.82;;;;;;;21.16;82.71;98759.69;5042803;28;20021;-70
2022/08/21 05:06:31;;;;;;;15.45;7.22;;;;;;;21.26;84.57;98760.78;5017899;28;20109;-69
2022/08/21 05:08:58;;;;;;;17.80;7.90;;;;;;;21.25;84.43;98756.34;5011013;28;20026;-69
2022/08/21 05:11:24;;;;;;;13.80;7.70;;;;;;;21.31;83.64;98750.97;5014101;28;20064;-69
2022/08/21 05:13:49;;;;;;;16.85;8.40;;;;;;;21.41;83.63;98767.09;5026051;28;20108;-69
2022/08/21 05:16:16;;;;;;;19.25;8.77;;;;;;;21.52;82.76;98757.63;5035940;28;20483;-69
2022/08/21 05:18:42;;;;;;;23.00;8.65;;;;;;;21.49;83.50;98758.50;5015993;28;20040;-69
2022/08/21 05:21:08;;;;;;;18.95;8.38;;;;;;;21.51;82.33;98761.72;5011075;28;20073;-69
2022/08/21 05:23:33;;;;;;;18.77;8.25;;;;;;;21.45;83.68;98764.22;5012524;28;20152;-69
2022/08/21 05:25:59;;;;;;;15.63;9.32;;;;;;;21.36;85.49;98761.91;5030505;28;20033;-70
2022/08/21 05:28:25;;;;;;;15.15;10.13;;;;;;;21.07;87.51;98762.25;5016996;28;20032;-69
2022/08/21 05:30:54;;;;;;;21.63;10.20;;;;;;;20.72;90.35;98759.34;5009738;28;20026;-69
2022/08/21 05:33:19;;;;;;;21.25;10.93;;;;;;;20.63;91.92;98767.56;5019050;28;20082;-69
2022/08/21 05:35:45;;;;;;;13.93;9.35;;;;;;;20.57;91.66;98769.22;5026144;28;20038;-69
2022/08/21 05:38:11;;;;;;;14.40;9.80;;;;;;;20.18;92.62;98766.31;5023864;28;20041;-69
2022/08/21 05:40:36;;;;;;;26.52;11.68;;;;;;;20.06;93.60;98773.31;5030951;28;20052;-70
2022/08/21 05:43:02;;;;;;;22.80;13.48;;;;;;;19.96;94.57;98762.84;5016174;28;20096;-69
2022/08/21 05:45:32;;;;;;;17.25;12.05;;;;;;;20.14;95.09;98764.72;5033822;28;20029;-70
2022/08/21 05:48:04;;;;;;;23.52;11.45;;;;;;;19.98;94.29;98771.75;5025718;28;20032;-70
2022/08/21 05:50:31;;;;;;;39.53;13.80;;;;;;;20.07;94.80;98785.47;5029402;28;20463;-70
2022/08/21 05:52:56;;;;;;;16.67;10.95;;;;;;;20.10;94.88;98781.81;5034363;28;20041;-69
2022/08/21 05:55:21;;;;;;;20.02;10.75;;;;;;;20.27;95.10;98785.75;5015709;28;20029;-71
2022/08/21 05:57:47;;;;;;;20.02;10.38;;;;;;;20.30;93.60;98792.59;5014557;28;20021;-69
2022/08/21 06:00:13;;;;;;;20.70;11.20;;;;;;;20.19;93.09;98787.81;5018560;28;20527;-71
2022/08/21 06:02:39;;;;;;;19.92;11.70;;;;;;;20.20;94.71;98789.41;5039668;28;20034;-71
2022/08/21 06:05:05;;;;;;;20.52;12.98;;;;;;;20.14;95.30;98793.13;5014377;28;20045;-68
2022/08/21 06:07:31;;;;;;;20.90;13.23;;;;;;;20.10;95.43;98786.66;5013152;28;20037;-70
2022/08/21 06:09:56;;;;;;;26.08;13.82;;;;;;;20.18;95.24;98786.19;5017368;28;20029;-71
2022/08/21 06:12:22;;;;;;;24.58;14.23;;;;;;;20.28;94.72;98772.34;5021971;28;20623;-71
2022/08/21 06:14:47;;;;;;;23.10;14.02;;;;;;;20.59;93.53;98773.28;5016139;28;20084;-70
2022/08/21 06:17:14;;;;;;;18.75;11.75;;;;;;;20.76;91.11;98767.84;5016330;28;20038;-70
2022/08/21 06:19:40;;;;;;;27.65;15.73;;;;;;;20.87;90.17;98765.69;5019858;28;20028;-71
2022/08/21 06:22:05;;;;;;;20.02;13.20;;;;;;;20.92;88.95;98767.28;5026425;28;20495;-73
2022/08/21 06:24:31;;;;;;;17.08;11.15;;;;;;;21.00;88.24;98765.19;5023591;28;20029;-71
2022/08/21 06:26:57;;;;;;;18.92;11.85;;;;;;;21.13;87.36;98762.59;5039807;28;20029;-71
2022/08/21 06:29:24;;;;;;;22.40;12.85;;;;;;;21.27;86.33;98776.63;5047975;28;20408;-71
2022/08/21 06:31:51;;;;;;;30.80;21.73;;;;;;;21.39;85.48;98771.59;5053898;28;20055;-70
2022/08/21 06:34:18;;;;;;;38.10;19.52;;;;;;;21.47;84.61;98773.13;5054038;28;20075;-70
2022/08/21 06:36:44;;;;;;;19.10;12.02;;;;;;;21.53;84.38;98767.78;5044728;28;20067;-69
2022/08/21 06:39:10;;;;;;;19.08;12.43;;;;;;;21.56;83.62;98766.91;5035676;28;20044;-70
2022/08/21 06:41:35;;;;;;;19.45;13.25;;;;;;;21.45;85.20;98767.06;5028434;28;20026;-70
2022/08/21 06:44:01;;;;;;;20.95;13.27;;;;;;;21.21;85.43;98768.97;5014919;28;20056;-71
2022/08/21 06:46:29;;;;;;;15.23;11.77;;;;;;;21.31;85.41;98770.88;5031316;28;20028;-71
2022/08/21 06:48:55;;;;;;;21.90;12.82;;;;;;;21.42;86.07;98770.78;5021437;28;20048;-69
2022/08/21 06:51:22;;;;;;;20.80;13.13;;;;;;;21.30;88.04;98769.28;5022704;28;20026;-69
2022/08/21 06:53:47;;;;;;;20.10;13.40;;;;;;;21.24;87.60;98763.25;5014837;28;20112;-70
2022/08/21 06:56:13;;;;;;;17.63;12.98;;;;;;;21.35;88.38;98765.16;5014045;28;20124;-70
2022/08/21 06:58:38;;;;;;;20.05;12.85;;;;;;;21.47;86.69;98770.28;5021687;28;20044;-70
2022/08/21 07:01:04;;;;;;;30.58;16.92;;;;;;;21.49;86.09;98778.41;5017014;28;20033;-71
2022/08/21 07:03:33;;;;;;;32.45;18.40;;;;;;;21.12;89.41;98776.00;5009824;28;20064;-69
2022/08/21 07:05:59;;;;;;;23.98;15.15;;;;;;;21.08;90.47;98766.69;5009651;28;20029;-68
2022/08/21 07:08:25;;;;;;;29.67;18.70;;;;;;;21.07;90.32;98773.63;5015161;28;20116;-70
2022/08/21 07:10:54;;;;;;;31.42;17.33;;;;;;;21.09;90.85;98768.31;5010078;28;20064;-69
2022/08/21 07:13:19;;;;;;;28.13;14.63;;;;;;;20.90;90.57;98764.88;5016550;28;20060;-70
2022/08/21 07:15:45;;;;;;;19.13;14.02;;;;;;;21.08;91.45;98763.06;5033268;28;20179;-71
2022/08/21 07:18:12;;;;;;;19.92;12.68;;;;;;;20.95;92.81;98746.56;5024094;28;20030;-69
2022/08/21 07:20:39;;;;;;;23.35;12.80;;;;;;;20.95;90.87;98762.78;5012251;28;20037;-68
2022/08/21 07:23:26;;;;;;;16.17;11.75;;;;;;;20.77;91.61;98755.25;5013330;28;20509;-69
2022/08/21 07:25:52;;;;;;;22.55;11.93;;;;;;;20.71;91.22;98759.75;5015369;28;20094;-69
2022/08/21 07:28:18;;;;;;;16.45;11.07;;;;;;;20.67;91.50;98765.47;5017816;28;20495;-68
2022/08/21 07:30:44;;;;;;;22.13;11.63;;;;;;;20.59;91.63;98756.22;5022970;28;20026;-70
2022/08/21 07:33:09;;;;;;;18.50;10.98;;;;;;;20.52;93.74;98758.34;5023493;28;20045;-69
2022/08/21 07:35:35;;;;;;;18.35;13.13;;;;;;;20.66;94.80;98761.03;5012060;28;20054;-69
2022/08/21 07:38:00;;;;;;;18.75;11.43;;;;;;;20.77;92.98;98756.03;5013730;28;20483;-68
2022/08/21 07:40:26;;;;;;;23.33;10.85;;;;;;;20.84;92.57;98757.25;5012680;28;20033;-69
2022/08/21 07:42:51;;;;;;;15.52;10.30;;;;;;;20.84;91.72;98758.03;5011473;28;20116;-73
2022/08/21 07:45:20;;;;;;;26.08;11.73;;;;;;;20.93;93.39;98753.88;5012917;28;20049;-72
2022/08/21 07:47:46;;;;;;;25.60;13.10;;;;;;;20.95;92.36;98752.25;5011340;28;20026;-71
2022/08/21 07:50:12;;;;;;;19.65;12.48;;;;;;;20.93;93.72;98734.78;5013442;28;20412;-74
2022/08/21 07:52:40;;;;;;;17.75;10.50;;;;;;;20.89;92.60;98751.06;5013465;28;20030;-70
2022/08/21 07:55:06;;;;;;;31.88;11.82;;;;;;;20.80;92.42;98757.25;5027912;28;20033;-72
2022/08/21 07:57:32;;;;;;;22.45;10.85;;;;;;;20.89;92.71;98756.75;5028781;28;20527;-70
2022/08/21 07:59:58;;;;;;;27.38;12.20;;;;;;;20.96;94.41;98755.88;5019133;28;20022;-71
2022/08/21 08:02:25;;;;;;;39.00;16.00;;;;;;;20.96;93.20;98764.41;5020607;28;20029;-70
2022/08/21 08:04:51;;;;;;;24.15;11.38;;;;;;;21.09;92.33;98759.78;5013884;28;20029;-70
2022/08/21 08:07:17;;;;;;;31.88;11.93;;;;;;;21.09;92.97;98751.25;5022179;28;20029;-69
2022/08/21 08:09:43;;;;;;;47.53;10.65;;;;;;;21.00;90.94;98745.28;5012293;28;20021;-69
2022/08/21 08:12:09;;;;;;;70.47;15.55;;;;;;;20.81;91.62;98750.34;5016865;28;20460;-69
2022/08/21 08:14:35;;;;;;;80.22;15.80;;;;;;;20.74;94.49;98744.72;5031992;28;20515;-70
2022/08/21 08:17:02;;;;;;;67.25;15.93;;;;;;;20.98;94.80;98736.34;5032133;28;20025;-73
2022/08/21 08:19:28;;;;;;;83.97;16.45;;;;;;;21.04;94.18;98737.50;5025721;28;20030;-72
2022/08/21 08:21:53;;;;;;;79.32;16.40;;;;;;;21.13;94.72;98743.50;5012063;28;20124;-72
2022/08/21 08:27:16;;;;;;;56.58;16.67;;;;;;;21.26;93.62;98745.78;5376041;23;20060;-86
2022/08/21 08:29:43;;;;;;;77.80;17.70;;;;;;;21.32;93.44;98727.00;5029522;28;20033;-87
2022/08/21 08:32:08;;;;;;;67.82;16.88;;;;;;;21.32;93.25;98718.47;5021543;28;20486;-86
2022/08/21 08:34:36;;;;;;;60.28;15.05;;;;;;;21.35;92.59;98713.97;5034665;28;20025;-87
2022/08/21 08:37:02;;;;;;;50.63;13.57;;;;;;;21.26;93.02;98711.66;5034317;28;20024;-87
2022/08/21 08:39:29;;;;;;;73.13;16.50;;;;;;;21.03;92.64;98707.47;5024884;28;20044;-87
2022/08/21 08:42:17;;;;;;;58.67;13.25;;;;;;;20.84;92.93;98706.88;5028645;28;20021;-87
2022/08/21 08:44:45;;;;;;;51.60;16.25;;;;;;;21.00;93.91;98723.34;5050380;28;20503;-87
2022/08/21 08:47:15;;;;;;;33.33;11.93;;;;;;;21.02;94.54;98708.72;5031808;28;20033;-86
2022/08/21 08:49:53;;;;;;;;;;;;;;;21.00;92.31;98719.72;5034647;28;20037;-87
2022/08/21 08:55:28;;;;;;;20.80;10.32;;;;;;;21.23;92.85;98706.81;5324061;22;20058;-86
2022/08/21 08:57:55;;;;;;;19.95;10.65;;;;;;;20.96;91.48;98699.84;5037110;28;20033;-87
2022/08/21 09:00:22;;;;;;;24.02;10.15;;;;;;;21.05;92.08;98673.75;5052838;28;20422;-88
2022/08/21 09:02:54;;;;;;;17.30;10.90;;;;;;;21.20;90.77;98680.06;5053581;28;20103;-87
2022/08/21 09:05:25;;;;;;;16.52;10.70;;;;;;;21.28;90.39;98672.22;5053878;28;20486;-87
2022/08/21 09:08:02;;;;;;;24.30;11.88;;;;;;;21.31;91.31;98691.25;5053637;28;20017;-87
2022/08/21 09:10:46;;;;;;;23.75;10.93;;;;;;;21.24;91.65;98682.84;5069923;28;20135;-86
2022/08/21 09:13:17;;;;;;;18.58;10.23;;;;;;;21.23;91.79;98684.06;5051768;28;20064;-87
2022/08/21 09:16:05;;;;;;;16.67;9.20;;;;;;;21.13;90.03;98680.13;5057819;28;20032;-86
2022/08/21 09:19:24;;;;;;;15.40;8.70;;;;;;;21.00;91.50;98677.06;5053064;28;20051;-87
2022/08/21 09:22:02;;;;;;;11.82;9.25;;;;;;;20.81;91.08;98693.53;5070508;28;20190;-88
2022/08/21 09:24:46;;;;;;;17.80;10.65;;;;;;;20.74;92.87;98682.19;5045207;28;20032;-87
2022/08/21 09:27:14;;;;;;;19.67;11.35;;;;;;;20.61;93.54;98682.75;5051409;28;20032;-86
2022/08/21 09:29:47;;;;;;;28.98;13.23;;;;;;;20.41;94.35;98657.00;5052708;28;20482;-86
2022/08/21 09:32:25;;;;;;;24.88;12.07;;;;;;;20.68;95.26;98669.72;5048055;28;20060;-85
2022/08/21 09:35:13;;;;;;;29.52;13.63;;;;;;;20.49;94.24;98671.94;5042820;28;20081;-86
2022/08/21 09:37:58;;;;;;;27.35;14.57;;;;;;;20.44;96.52;98670.34;5050802;28;20059;-84
2022/08/21 09:40:35;;;;;;;24.60;14.68;;;;;;;20.68;98.36;98666.88;5052200;28;20111;-84
2022/08/21 09:43:23;;;;;;;18.83;14.20;;;;;;;20.54;97.35;98668.66;5058052;28;20028;-85
2022/08/21 09:46:03;;;;;;;25.08;14.02;;;;;;;20.30;96.33;98665.66;5061239;28;20483;-85
2022/08/21 09:48:29;;;;;;;24.35;12.95;;;;;;;20.39;97.32;98667.16;5069738;28;20031;-85
2022/08/21 09:51:06;;;;;;;18.60;12.65;;;;;;;20.45;95.84;98676.84;5052747;28;20037;-85
2022/08/21 09:53:33;;;;;;;18.55;9.18;;;;;;;20.12;92.44;98665.00;5037309;28;20016;-85
2022/08/21 09:59:13;;;;;;;16.67;9.77;;;;;;;20.23;92.53;98691.25;5062838;28;20089;-84
2022/08/21 10:01:45;;;;;;;21.10;9.85;;;;;;;20.29;92.75;98681.06;5051925;28;20201;-84
2022/08/21 10:04:11;;;;;;;14.30;10.35;;;;;;;20.57;93.33;98684.00;5068918;28;20052;-85
2022/08/21 10:06:37;;;;;;;16.30;8.52;;;;;;;20.50;91.07;98684.91;5049318;28;20044;-85
2022/08/21 10:09:18;;;;;;;17.23;9.00;;;;;;;20.49;91.66;98691.81;5041808;28;20154;-84
2022/08/21 10:11:55;;;;;;;12.82;7.72;;;;;;;20.40;91.55;98685.84;5032565;28;20028;-85
2022/08/21 10:14:39;;;;;;;10.40;7.95;;;;;;;20.26;91.51;98667.69;5056755;28;20013;-85
2022/08/21 10:17:57;;;;;;;16.75;8.90;;;;;;;20.53;91.41;98678.41;5052573;28;20021;-85
2022/08/21 10:20:47;;;;;;;15.07;8.30;;;;;;;20.55;91.78;98678.78;4975471;28;20037;-84
2022/08/21 10:23:41;;;;;;;11.40;8.45;;;;;;;20.62;91.52;98684.34;5056043;28;20049;-85
2022/08/21 10:26:30;;;;;;;18.60;10.55;;;;;;;20.71;92.99;98686.72;5053737;28;20090;-84
2022/08/21 10:29:14;;;;;;;21.55;11.32;;;;;;;20.83;93.37;98685.38;5073285;28;20063;-84
2022/08/21 10:31:52;;;;;;;20.25;10.93;;;;;;;20.78;91.42;98691.50;5070938;28;20063;-84
2022/08/21 10:34:54;;;;;;;20.98;10.52;;;;;;;20.73;90.16;98680.59;5038330;28;20039;-84
2022/08/21 10:37:51;;;;;;;13.32;9.68;;;;;;;20.95;90.73;98674.69;5053953;28;20435;-85
2022/08/21 10:40:39;;;;;;;21.75;9.75;;;;;;;20.96;87.78;98681.97;5068772;28;20048;-84
2022/08/21 10:43:14;;;;;;;20.98;11.70;;;;;;;21.13;89.31;98680.13;5051636;28;20395;-84
2022/08/21 10:45:53;;;;;;;14.23;10.40;;;;;;;21.13;88.99;98678.13;5052070;28;20493;-84
2022/08/21 10:48:42;;;;;;;20.38;10.13;;;;;;;21.17;88.01;98676.00;5054901;28;20094;-84
2022/08/21 10:51:29;;;;;;;17.95;10.13;;;;;;;21.27;88.24;98664.94;5055550;28;20119;-84
2022/08/21 10:54:33;;;;;;;14.43;9.60;;;;;;;21.51;85.08;98691.38;5055662;28;20024;-85
2022/08/21 10:57:08;;;;;;;15.65;8.50;;;;;;;21.33;81.67;98677.41;5031606;28;20080;-84
2022/08/21 10:59:41;;;;;;;15.43;8.75;;;;;;;21.44;85.55;98680.91;5038566;28;20601;-84
2022/08/21 11:02:38;;;;;;;13.90;10.65;;;;;;;21.38;85.88;98668.44;5054682;28;20553;-84
2022/08/21 11:05:15;;;;;;;17.02;8.60;;;;;;;21.40;86.48;98680.16;5053837;28;20115;-84
2022/08/21 11:07:54;;;;;;;14.48;9.02;;;;;;;21.59;86.22;98677.84;5052734;28;20025;-84
2022/08/21 11:10:27;;;;;;;19.10;8.63;;;;;;;21.53;86.80;98671.06;5035411;28;20029;-84
2022/08/21 11:13:00;;;;;;;14.10;9.20;;;;;;;21.78;85.66;98686.97;5039486;28;20059;-85
2022/08/21 11:15:34;;;;;;;20.73;9.63;;;;;;;21.58;83.79;98681.94;5073122;28;20029;-84
2022/08/21 11:18:19;;;;;;;23.73;11.02;;;;;;;21.49;84.15;98685.31;5054995;28;20423;-84
2022/08/21 11:21:03;;;;;;;12.02;9.38;;;;;;;21.34;85.04;98684.72;5051064;28;20465;-83
2022/08/21 11:23:39;;;;;;;19.35;10.20;;;;;;;21.55;87.51;98680.78;5042955;28;20028;-84
2022/08/21 11:26:18;;;;;;;18.45;10.05;;;;;;;21.73;86.56;98672.00;5055019;28;20107;-84
2022/08/21 11:29:04;;;;;;;18.55;8.77;;;;;;;21.90;86.37;98668.47;5051326;28;20090;-84
2022/08/21 11:31:29;;;;;;;20.05;10.95;;;;;;;21.80;87.07;98681.63;5059020;28;20060;-84
2022/08/21 11:34:15;;;;;;;14.63;10.88;;;;;;;21.72;85.57;98683.78;5054490;28;20123;-83
2022/08/21 11:37:02;;;;;;;21.50;9.55;;;;;;;21.94;85.76;98681.41;5054317;28;20169;-85
2022/08/21 11:39:49;;;;;;;23.92;10.90;;;;;;;21.95;86.22;98663.06;5065168;28;20039;-84
2022/08/21 11:42:37;;;;;;;12.45;8.80;;;;;;;21.94;85.83;98674.91;5051449;28;20836;-83
2022/08/21 11:45:34;;;;;;;14.68;9.45;;;;;;;22.12;84.71;98664.00;5054279;28;20033;-86